• Join FlightAware (Why Join?)
  • Login
  • US Flag 
06:24AM EST


 

Airport Tracker/Info


-or-


 

Live Flight TrackerFlight Track Log ✈ DAL268 ✈ 06-Oct-2013 ✈ KJFK - LLBG / TLV

Flight Track Log - Related Links

Times and Time Zones

All times are in EDT time to prevent confusion due to time zone crossing. See the DAL268 flight status page for this flight to view local times or setup timezone preferences in your user account.

Time Position Orientation Groundspeed Altitude Reporting Facility
EDT Latitude Longitude Course Direction KTS MPH feet Rate Location/Type
09:52PM 40.6270 -73.7820 37° Northeast 84 97  Level FlightAware
09:53PM 40.6400 -73.7710 33° Northeast 168 193 480 Level FlightAware
09:53PM 40.6460 -73.7680 21° North 182 209 1,140 Level FlightAware
09:53PM 40.6550 -73.7600 34° Northeast 184 212 400 2,100 Climbing FlightAware
09:53PM 40.6660 -73.7510 32° Northeast 180 207 1,000 1,860 Climbing FlightAware
09:53PM 40.6680 -73.7480 49° Northeast 179 206 1,000 960 Level FlightAware
09:53PM 40.6710 -73.7400 64° Northeast 179 206 1,200 1,320 Climbing FlightAware
09:54PM 40.6740 -73.7290 70° East 187 215 1,400 1,200 Climbing FlightAware
09:54PM 40.6760 -73.7050 84° East 204 235 1,800 1,080 Climbing FlightAware
09:54PM 40.6700 -73.6680 102° East 226 260 2,300 1,200 Climbing FlightAware
09:55PM 40.6640 -73.6540 119° Southeast 230 265 2,600 960 Climbing FlightAware
09:55PM 40.6520 -73.6240 118° Southeast 257 296 2,900 1,200 Climbing FlightAware
09:55PM 40.6390 -73.5930 119° Southeast 268 308 3,500 1,740 Climbing FlightAware
09:56PM 40.6330 -73.5780 118° Southeast 276 318 3,800 2,280 Climbing FlightAware
09:56PM 40.6170 -73.5400 119° Southeast 283 326 4,900 2,580 Climbing FlightAware
09:56PM 40.6100 -73.5220 117° Southeast 286 329 5,400 2,400 Climbing FlightAware
09:56PM 40.5990 -73.4940 117° Southeast 292 336 6,100 2,340 Climbing FlightAware
09:57PM 40.5820 -73.4540 119° Southeast 298 343 7,100 2,340 Climbing FlightAware
09:57PM 40.5740 -73.4330 117° Southeast 302 348 7,600 2,340 Climbing FlightAware
09:57PM 40.5600 -73.3990 118° Southeast 306 352 8,400 2,400 Climbing FlightAware
09:58PM 40.5430 -73.3590 119° Southeast 310 357 9,400 2,100 Climbing FlightAware
09:58PM 40.5220 -73.3070 118° Southeast 322 371 10,400 1,380 Climbing FlightAware
09:59PM 40.4940 -73.2400 119° Southeast 358 412 11,000 960 Climbing FlightAware
10:00PM 40.4630 -73.1650 118° Southeast 391 450 11,600 960 Climbing FlightAware
10:00PM 40.4380 -73.0980 116° Southeast 422 486 12,100 1,620 Climbing FlightAware
10:00PM 40.4330 -73.0520 98° East 427 491 12,900 2,400 Climbing FlightAware
10:01PM 40.4410 -72.9790 82° East 435 501 13,900 1,920 Climbing FlightAware
10:01PM 40.4540 -72.9118 76° East 445 512 14,700 1,860 Climbing FlightAware ADS-B (KSNC)
10:02PM 40.4714 -72.8051 78° East 455 524 16,000 1,740 Climbing FlightAware ADS-B (KSNC)
10:03PM 40.4854 -72.7088 79° East 465 535 16,900 1,680 Climbing FlightAware ADS-B (KSNC)
10:03PM 40.5004 -72.5997 80° East 472 543 18,100 1,740 Climbing FlightAware ADS-B (KSNC)
10:04PM 40.5126 -72.5085 80° East 479 551 19,000 1,620 Climbing FlightAware ADS-B (KSNC)
10:04PM 40.5279 -72.3929 80° East 487 560 20,100 1,500 Climbing FlightAware ADS-B (KSNC)
10:05PM 40.5460 -72.2610 80° East 495 570 21,200 1,380 Climbing FlightAware
10:06PM 40.5600 -72.1530 80° East 501 577 22,100 1,440 Climbing FlightAware
10:06PM 40.5730 -72.0540 80° East 505 581 22,900 1,380 Climbing FlightAware
10:07PM 40.6010 -71.8370 80° East 516 594 24,500 1,380 Climbing FlightAware
10:08PM 40.6160 -71.7190 80° East 521 600 25,300 1,200 Climbing FlightAware
10:09PM 40.6280 -71.6210 81° East 525 604 25,900 1,020 Climbing FlightAware
10:09PM 40.6420 -71.5070 81° East 531 611 26,500 1,020 Climbing FlightAware
10:10PM 40.6570 -71.3950 80° East 536 617 27,100 960 Climbing FlightAware
10:10PM 40.6710 -71.2820 81° East 541 623 27,700 1,080 Climbing FlightAware
10:11PM 40.6850 -71.1670 81° East 542 624 28,400 1,200 Climbing FlightAware
10:12PM 40.6990 -71.0540 81° East 539 620 29,200 1,320 Climbing FlightAware
10:12PM 40.7110 -70.9500 81° East 537 618 29,900 1,320 Climbing FlightAware
10:13PM 40.7260 -70.8280 81° East 533 613 30,700 840 Climbing FlightAware
10:13PM 40.7400 -70.7060 81° East 533 613 31,000 240 Climbing FlightAware
10:14PM 40.7540 -70.5940 81° East 534 615 31,000  Level FlightAware
10:15PM 40.7680 -70.4740 81° East 534 615 31,000  Level FlightAware
10:15PM 40.7800 -70.3750 81° East 534 615 31,000  Level FlightAware
10:16PM 40.7920 -70.2740 81° East 534 615 31,000  Level FlightAware
10:17PM 40.8040 -70.1730 81° East 534 615 31,000  Level FlightAware
10:17PM 40.8160 -70.0740 81° East 534 615 31,000  Level FlightAware
10:18PM 40.8280 -69.9750 81° East 534 615 31,000  Level FlightAware
10:18PM 40.8400 -69.8770 81° East 534 615 31,000  Level FlightAware
10:19PM 40.8510 -69.7780 82° East 534 615 31,000  Level FlightAware
10:20PM 40.8630 -69.6790 81° East 534 615 31,000  Level FlightAware
10:20PM 40.8750 -69.5800 81° East 534 615 31,000  Level FlightAware
10:21PM 40.8870 -69.4820 81° East 534 615 31,000  Level FlightAware
10:21PM 40.8990 -69.3830 81° East 534 615 31,000  Level FlightAware
10:22PM 40.9110 -69.2840 81° East 534 615 31,000  Level FlightAware
10:23PM 40.9220 -69.1850 82° East 534 615 31,000  Level FlightAware
10:23PM 40.9340 -69.0860 81° East 534 615 31,000  Level FlightAware
10:24PM 40.9460 -68.9850 81° East 534 615 31,000 -120 Level FlightAware
10:25PM 40.9794 -68.4994 81° East 543 625 30,900 -60 Descending New York Center
10:26PM 40.9986 -68.3039 83° East 543 625 30,900  Level New York Center
10:27PM 41.0153 -68.1081 84° East 543 625 30,900  Level New York Center
10:28PM 41.0336 -67.9119 83° East 543 625 30,900  Level New York Center
10:29PM 41.0539 -67.7158 82° East 543 625 30,900  Level New York Center
10:32PM 41.1167 -67.0000 78° East 545 627 31,000  Climbing New York Oceanic (ODAPS)
10:34PM 41.1667 -66.7000 78° East 544 626 31,000  Level New York Oceanic (ODAPS)
10:34PM 41.1722 -66.6397 82° East 548 631 31,000  Level FlightAware ADS-B (CYQI)
10:35PM 41.1877 -66.4759 83° East 551 634 31,000  Level FlightAware ADS-B (CYQI)
10:36PM 41.2042 -66.3425 81° East 552 635 31,000  Level FlightAware ADS-B (CYQI)
10:36PM 41.2242 -66.1996 79° East 552 635 31,000  Level FlightAware ADS-B (CYQI)
10:37PM 41.2377 -66.1066 79° East 552 635 31,000  Level FlightAware ADS-B (CYQI)
10:37PM 41.2545 -65.9934 79° East 553 636 31,000  Level FlightAware ADS-B (CYQI)
10:38PM 41.2729 -65.8699 78° East 554 638 31,000  Level FlightAware ADS-B (CYQI)
10:39PM 41.2889 -65.7634 79° East 555 639 31,000  Level FlightAware ADS-B (CYQI)
10:39PM 41.3051 -65.6530 79° East 555 639 31,000  Level FlightAware ADS-B (CYQI)
10:40PM 41.3418 -65.5308 79° East 544 626 31,000  Level FlightAware Transoceanic
10:40PM 41.3294 -65.4851 79° East 556 640 31,000  Level FlightAware ADS-B (CYQI)
10:41PM 41.3410 -65.4020 79° East 555 639 31,000  Level FlightAware
10:41PM 47.4570 -64.4460 North 31,000  Level FlightAware
10:41PM 47.4590 -64.4300 80° East 31,000  Level FlightAware
10:42PM 41.3880 -65.0750 185° South 557 641 31,000  Level FlightAware
10:42PM 41.3945 -65.0283 79° East 556 640 31,000  Level FlightAware ADS-B (CYQI)
10:43PM 41.4098 -64.9204 79° East 557 641 31,000  Level FlightAware ADS-B (CYQI)
10:44PM 41.4330 -64.7520 80° East 556 640 31,000  Level FlightAware
10:44PM 41.4510 -64.6250 79° East 554 638 31,000  Level FlightAware
10:45PM 41.4680 -64.4910 80° East 550 633 31,000  Level FlightAware
10:45PM 41.4734 -64.4545 79° East 549 632 31,000  Level FlightAware ADS-B (CYQI)
10:46PM 41.4950 -64.2950 80° East 547 629 31,000  Level FlightAware
10:47PM 41.5200 -64.1090 80° East 547 629 31,000  Level FlightAware
10:47PM 41.5340 -63.9970 80° East 548 631 31,000  Level FlightAware
10:48PM 41.5490 -63.8860 80° East 550 633 31,000  Level FlightAware
10:49PM 41.5630 -63.7830 80° East 550 633 31,000  Level FlightAware
10:49PM 41.5760 -63.6800 80° East 550 633 31,000  Level FlightAware
10:50PM 41.5930 -63.5420 81° East 550 633 31,000  Level FlightAware
10:50PM 41.6090 -63.4180 80° East 550 633 31,000  Level FlightAware
10:51PM 41.6230 -63.2980 81° East 548 631 31,000  Level FlightAware
10:52PM 41.6410 -63.1480 81° East 547 629 31,000  Level FlightAware
10:52PM 41.6590 -63.0110 80° East 547 629 31,000  Level FlightAware
10:53PM 41.6720 -62.8990 81° East 550 633 31,000  Level FlightAware
10:53PM 41.6870 -62.7790 80° East 551 634 31,000  Level FlightAware
10:54PM 41.7030 -62.6440 81° East 551 634 31,000  Level FlightAware
10:55PM 41.7160 -62.5330 81° East 551 634 31,000  Level FlightAware
10:55PM 41.7280 -62.4290 81° East 551 634 31,000  Level FlightAware
10:56PM 41.7400 -62.3260 81° East 551 634 31,000  Level FlightAware
10:57PM 41.7530 -62.2200 81° East 551 634 31,000  Level FlightAware
10:57PM 41.7650 -62.1170 81° East 551 634 31,000  Level FlightAware
10:57PM 41.7833 -62.0333 81° East 551 634 31,000  Level New York Oceanic (ODAPS)
10:59PM 41.8090 -61.7100 82° East 556 640 31,000  Level FlightAware
10:59PM 41.8210 -61.5960 82° East 556 640 31,000 480 Level FlightAware
11:00PM 41.8350 -61.4640 82° East 556 640 31,700 540 Climbing FlightAware
11:01PM 41.8460 -61.3590 82° East 556 640 31,700 -240 Level FlightAware
11:03PM 41.9757 -61.0357 62° Northeast  Level Estimated
11:04PM 41.9176 -60.8150 82° East 551 634 31,000  Level FlightAware Transoceanic
11:05PM 41.9388 -60.6114 82° East 551 634 31,000  Level FlightAware Transoceanic
11:06PM 41.9595 -60.4077 82° East 551 634 31,000  Level FlightAware Transoceanic
11:07PM 41.9799 -60.2039 82° East 551 634 31,000 540 Level FlightAware Transoceanic
11:07PM 42.0000 -60.0000 71° East 546 628 32,000  Climbing New York Oceanic (ODAPS)
11:08PM 42.0000 -60.0000 71° East 551 634 31,000 -840 Descending FlightAware Transoceanic
11:09PM 42.0484 -59.8067 71° East 551 634 31,000  Level FlightAware Transoceanic
11:10PM 42.0964 -59.6131 72° East 551 634 31,000  Level FlightAware Transoceanic
11:11PM 42.1441 -59.4192 72° East 551 634 31,000  Level FlightAware Transoceanic
11:12PM 42.1914 -59.2250 72° East 551 634 31,000  Level FlightAware Transoceanic
11:13PM 42.2385 -59.0305 72° East 551 634 31,000 480 Level FlightAware Transoceanic
11:14PM 42.2852 -58.8357 72° East 546 628 32,000 480 Climbing FlightAware Transoceanic
11:15PM 42.3316 -58.6406 72° East 546 628 32,000  Level FlightAware Transoceanic
11:16PM 42.3777 -58.4453 72° East 546 628 32,000  Level FlightAware Transoceanic
11:17PM 42.4234 -58.2496 73° East 546 628 32,000  Level FlightAware Transoceanic
11:18PM 42.4688 -58.0537 73° East 546 628 32,000  Level FlightAware Transoceanic
11:18PM 42.4833 -58.0167 73° East 543 625 32,000  Level New York Oceanic (ODAPS)
11:19PM 42.5138 -57.8575 73° East 546 628 32,000  Level FlightAware Transoceanic
11:20PM 42.5585 -57.6610 73° East 546 628 32,000  Level FlightAware Transoceanic
11:21PM 42.6029 -57.4642 73° East 546 628 32,000  Level FlightAware Transoceanic
11:22PM 42.6470 -57.2672 73° East 546 628 32,000  Level FlightAware Transoceanic
11:23PM 42.6907 -57.0699 73° East 546 628 32,000  Level FlightAware Transoceanic
11:24PM 42.7461 -56.8404 74° East 543 625 32,000  Level FlightAware Transoceanic
11:25PM 42.7887 -56.6434 74° East 543 625 32,000  Level FlightAware Transoceanic
11:26PM 42.8310 -56.4461 74° East 543 625 32,000  Level FlightAware Transoceanic
11:27PM 42.8730 -56.2486 74° East 543 625 32,000  Level FlightAware Transoceanic
11:28PM 42.9146 -56.0508 74° East 543 625 32,000  Level FlightAware Transoceanic
11:29PM 42.9558 -55.8527 74° East 543 625 32,000  Level FlightAware Transoceanic
11:30PM 42.9967 -55.6544 74° East 543 625 32,000  Level FlightAware Transoceanic
11:31PM 43.0373 -55.4558 74° East 543 625 32,000  Level FlightAware Transoceanic
11:32PM 43.0776 -55.2569 75° East 543 625 32,000  Level FlightAware Transoceanic
11:33PM 43.1175 -55.0578 75° East 543 625 32,000  Level FlightAware Transoceanic
11:34PM 43.1570 -54.8584 75° East 543 625 32,000  Level FlightAware Transoceanic
11:35PM 43.1962 -54.6588 75° East 543 625 32,000  Level FlightAware Transoceanic
11:36PM 43.2350 -54.4589 75° East 543 625 32,000  Level FlightAware Transoceanic
11:37PM 43.2735 -54.2587 75° East 543 625 32,000  Level FlightAware Transoceanic
11:38PM 43.3117 -54.0583 75° East 543 625 32,000  Level FlightAware Transoceanic
11:38PM 43.3167 -54.0500 75° East 541 623 32,000  Level New York Oceanic (ODAPS)
11:39PM 43.3495 -53.8577 76° East 543 625 32,000  Level FlightAware Transoceanic
11:40PM 43.3869 -53.6568 76° East 543 625 32,000  Level FlightAware Transoceanic
11:41PM 43.4240 -53.4556 76° East 543 625 32,000  Level FlightAware Transoceanic
11:42PM 43.4608 -53.2542 76° East 543 625 32,000  Level FlightAware Transoceanic
11:43PM 43.4972 -53.0526 76° East 543 625 32,000  Level FlightAware Transoceanic
11:44PM 43.5366 -52.8448 76° East 541 623 32,000  Level FlightAware Transoceanic
11:45PM 43.5721 -52.6431 76° East 541 623 32,000  Level FlightAware Transoceanic
11:46PM 43.6071 -52.4411 77° East 541 623 32,000  Level FlightAware Transoceanic
11:47PM 43.6418 -52.2389 77° East 541 623 32,000  Level FlightAware Transoceanic
11:48PM 43.6762 -52.0365 77° East 541 623 32,000  Level FlightAware Transoceanic
11:49PM 43.7102 -51.8339 77° East 541 623 32,000  Level FlightAware Transoceanic
11:50PM 43.7439 -51.6310 77° East 541 623 32,000  Level FlightAware Transoceanic
11:51PM 43.7771 -51.4279 77° East 541 623 32,000  Level FlightAware Transoceanic
11:52PM 43.8101 -51.2246 77° East 541 623 32,000  Level FlightAware Transoceanic
11:53PM 43.8426 -51.0210 78° East 541 623 32,000  Level FlightAware Transoceanic
11:54PM 43.8748 -50.8173 78° East 541 623 32,000  Level FlightAware Transoceanic
11:55PM 43.9067 -50.6133 78° East 541 623 32,000  Level FlightAware Transoceanic
11:56PM 43.9381 -50.4091 78° East 541 623 32,000  Level FlightAware Transoceanic
11:57PM 43.9692 -50.2046 78° East 541 623 32,000  Level FlightAware Transoceanic
11:58PM 44.0000 -50.0000 71° East 541 623 32,000  Level FlightAware Transoceanic
11:58PM 44.0000 -50.0333 90° East 690 794 32,000  Level New York Oceanic (ODAPS)
11:58PM 44.0000 -50.0000 71° East 545 627 32,000  Level New York Oceanic (ODAPS)
11:59PM 44.0504 -49.7991 71° East 541 623 32,000  Level FlightAware Transoceanic
12:00AM 44.1004 -49.5979 71° East 541 623 32,000  Level FlightAware Transoceanic
12:01AM 44.1501 -49.3963 71° East 541 623 32,000  Level FlightAware Transoceanic
12:02AM 44.1994 -49.1944 71° East 541 623 32,000  Level FlightAware Transoceanic
12:03AM 44.2483 -48.9922 71° East 541 623 32,000  Level FlightAware Transoceanic
12:04AM 44.2483 -48.9922 71° East 690 794 32,000  Level FlightAware Transoceanic
12:05AM 44.2969 -48.7896 72° East 545 627 32,000  Level FlightAware Transoceanic
12:06AM 44.3451 -48.5867 72° East 545 627 32,000  Level FlightAware Transoceanic
12:07AM 44.3930 -48.3834 72° East 545 627 32,000  Level FlightAware Transoceanic
12:08AM 44.4406 -48.1799 72° East 545 627 32,000  Level FlightAware Transoceanic
12:09AM 44.4877 -47.9760 72° East 545 627 32,000  Level FlightAware Transoceanic
12:10AM 44.5345 -47.7717 72° East 545 627 32,000  Level FlightAware Transoceanic
12:11AM 44.5809 -47.5672 72° East 545 627 32,000  Level FlightAware Transoceanic
12:12AM 44.6270 -47.3623 73° East 545 627 32,000  Level FlightAware Transoceanic
12:13AM 44.6727 -47.1571 73° East 545 627 32,000  Level FlightAware Transoceanic
12:14AM 44.7180 -46.9515 73° East 545 627 32,000  Level FlightAware Transoceanic
12:15AM 44.7630 -46.7457 73° East 545 627 32,000  Level FlightAware Transoceanic
12:16AM 44.8075 -46.5395 73° East 545 627 32,000  Level FlightAware Transoceanic
12:17AM 44.8518 -46.3330 73° East 545 627 32,000  Level FlightAware Transoceanic
12:18AM 44.8956 -46.1262 73° East 545 627 32,000  Level FlightAware Transoceanic
12:19AM 44.9391 -45.9191 74° East 545 627 32,000  Level FlightAware Transoceanic
12:20AM 44.9822 -45.7117 74° East 545 627 32,000  Level FlightAware Transoceanic
12:21AM 45.0249 -45.5039 74° East 545 627 32,000  Level FlightAware Transoceanic
12:22AM 45.0672 -45.2959 74° East 545 627 32,000  Level FlightAware Transoceanic
12:23AM 45.1092 -45.0875 74° East 545 627 32,000  Level FlightAware Transoceanic
12:24AM 45.1508 -44.8788 74° East 545 627 32,000  Level FlightAware Transoceanic
12:25AM 45.1920 -44.6699 74° East 545 627 32,000  Level FlightAware Transoceanic
12:26AM 45.2328 -44.4606 75° East 545 627 32,000  Level FlightAware Transoceanic
12:27AM 45.2732 -44.2510 75° East 545 627 32,000  Level FlightAware Transoceanic
12:28AM 45.3133 -44.0411 75° East 545 627 32,000  Level FlightAware Transoceanic
12:29AM 45.3530 -43.8310 75° East 545 627 32,000  Level FlightAware Transoceanic
12:30AM 45.3922 -43.6205 75° East 545 627 32,000  Level FlightAware Transoceanic
12:31AM 45.4311 -43.4098 75° East 545 627 32,000  Level FlightAware Transoceanic
12:32AM 45.4696 -43.1987 75° East 545 627 32,000  Level FlightAware Transoceanic
12:33AM 45.5078 -42.9874 76° East 545 627 32,000  Level FlightAware Transoceanic
12:34AM 45.5455 -42.7758 76° East 545 627 32,000  Level FlightAware Transoceanic
12:35AM 45.5828 -42.5639 76° East 545 627 32,000  Level FlightAware Transoceanic
12:36AM 45.6198 -42.3517 76° East 545 627 32,000  Level FlightAware Transoceanic
12:37AM 45.6563 -42.1393 76° East 545 627 32,000  Level FlightAware Transoceanic
12:38AM 45.6925 -41.9266 76° East 545 627 32,000  Level FlightAware Transoceanic
12:39AM 45.7282 -41.7136 77° East 545 627 32,000  Level FlightAware Transoceanic
12:40AM 45.7636 -41.5003 77° East 545 627 32,000  Level FlightAware Transoceanic
12:41AM 45.7986 -41.2868 77° East 545 627 32,000  Level FlightAware Transoceanic
12:42AM 45.8331 -41.0729 77° East 545 627 32,000  Level FlightAware Transoceanic
12:43AM 45.8673 -40.8589 77° East 545 627 32,000  Level FlightAware Transoceanic
12:44AM 45.9011 -40.6446 77° East 545 627 32,000  Level FlightAware Transoceanic
12:45AM 45.9345 -40.4300 77° East 545 627 32,000  Level FlightAware Transoceanic
12:46AM 45.9674 -40.2151 78° East 545 627 32,000  Level FlightAware Transoceanic
12:47AM 46.0000 -40.0000 70° East 545 627 32,000  Level FlightAware Transoceanic
12:48AM 46.0525 -39.7909 70° East 545 627 32,000  Level FlightAware Transoceanic
12:49AM 46.1047 -39.5815 70° East 545 627 32,000  Level FlightAware Transoceanic
12:50AM 46.1564 -39.3716 70° East 545 627 32,000  Level FlightAware Transoceanic
12:51AM 46.2078 -39.1613 71° East 545 627 32,000  Level FlightAware Transoceanic
12:52AM 46.2588 -38.9507 71° East 545 627 32,000  Level FlightAware Transoceanic
12:53AM 46.3094 -38.7396 71° East 545 627 32,000  Level FlightAware Transoceanic
12:54AM 46.3596 -38.5282 71° East 545 627 32,000  Level FlightAware Transoceanic
12:55AM 46.4094 -38.3164 71° East 545 627 32,000  Level FlightAware Transoceanic
12:56AM 46.4588 -38.1042 71° East 545 627 32,000  Level FlightAware Transoceanic
12:57AM 46.5079 -37.8916 72° East 545 627 32,000  Level FlightAware Transoceanic
12:58AM 46.5565 -37.6786 72° East 545 627 32,000  Level FlightAware Transoceanic
12:59AM 46.6048 -37.4653 72° East 545 627 32,000  Level FlightAware Transoceanic
01:00AM 46.6526 -37.2515 72° East 545 627 32,000  Level FlightAware Transoceanic
01:01AM 46.7000 -37.0374 72° East 545 627 32,000  Level FlightAware Transoceanic
01:02AM 46.7471 -36.8229 72° East 545 627 32,000  Level FlightAware Transoceanic
01:03AM 46.7937 -36.6081 72° East 545 627 32,000  Level FlightAware Transoceanic
01:04AM 46.8400 -36.3929 73° East 545 627 32,000  Level FlightAware Transoceanic
01:05AM 46.8858 -36.1773 73° East 545 627 32,000  Level FlightAware Transoceanic
01:06AM 46.9313 -35.9613 73° East 545 627 32,000  Level FlightAware Transoceanic
01:07AM 46.9763 -35.7450 73° East 545 627 32,000  Level FlightAware Transoceanic
01:08AM 47.0209 -35.5283 73° East 545 627 32,000  Level FlightAware Transoceanic
01:09AM 47.0651 -35.3112 73° East 545 627 32,000  Level FlightAware Transoceanic
01:10AM 47.1089 -35.0938 74° East 545 627 32,000  Level FlightAware Transoceanic
01:11AM 47.1523 -34.8761 74° East 545 627 32,000  Level FlightAware Transoceanic
01:12AM 47.1953 -34.6579 74° East 545 627 32,000  Level FlightAware Transoceanic
01:13AM 47.2378 -34.4395 74° East 545 627 32,000  Level FlightAware Transoceanic
01:14AM 47.2800 -34.2206 74° East 545 627 32,000  Level FlightAware Transoceanic
01:15AM 47.3217 -34.0015 74° East 545 627 32,000  Level FlightAware Transoceanic
01:16AM 47.3630 -33.7820 75° East 545 627 32,000  Level FlightAware Transoceanic
01:17AM 47.4039 -33.5621 75° East 545 627 32,000  Level FlightAware Transoceanic
01:18AM 47.4444 -33.3419 75° East 545 627 32,000  Level FlightAware Transoceanic
01:19AM 47.4844 -33.1214 75° East 545 627 32,000  Level FlightAware Transoceanic
01:20AM 47.5240 -32.9005 75° East 545 627 32,000  Level FlightAware Transoceanic
01:21AM 47.5632 -32.6793 75° East 545 627 32,000  Level FlightAware Transoceanic
01:22AM 47.6020 -32.4578 76° East 545 627 32,000  Level FlightAware Transoceanic
01:23AM 47.6403 -32.2359 76° East 545 627 32,000  Level FlightAware Transoceanic
01:24AM 47.6782 -32.0137 76° East 545 627 32,000  Level FlightAware Transoceanic
01:25AM 47.7157 -31.7912 76° East 545 627 32,000  Level FlightAware Transoceanic
01:26AM 47.7528 -31.5684 76° East 545 627 32,000  Level FlightAware Transoceanic
01:27AM 47.7894 -31.3453 76° East 545 627 32,000  Level FlightAware Transoceanic
01:28AM 47.8256 -31.1218 77° East 545 627 32,000  Level FlightAware Transoceanic
01:29AM 47.8613 -30.8981 77° East 545 627 32,000  Level FlightAware Transoceanic
01:30AM 47.8967 -30.6740 77° East 545 627 32,000  Level FlightAware Transoceanic
01:31AM 47.9315 -30.4496 77° East 545 627 32,000  Level FlightAware Transoceanic
01:32AM 47.9660 -30.2250 77° East 545 627 32,000  Level FlightAware Transoceanic
01:33AM 47.9826 -30.0102 83° East  Level Estimated
01:34AM 47.9987 -29.7953 84° East  Level Estimated
01:35AM 48.0145 -29.5803 84° East  Level Estimated
01:36AM 48.0299 -29.3655 84° East  Level Estimated
01:37AM 48.0448 -29.1506 84° East  Level Estimated
01:38AM 48.0593 -28.9355 84° East  Level Estimated
01:39AM 48.0735 -28.7204 84° East  Level Estimated
01:40AM 48.0872 -28.5051 84° East  Level Estimated
01:41AM 48.1006 -28.2897 85° East  Level Estimated
01:42AM 48.1135 -28.0742 85° East  Level Estimated
01:43AM 48.1260 -27.8586 85° East  Level Estimated
01:44AM 48.1381 -27.6429 85° East  Level Estimated
01:45AM 48.1499 -27.4271 85° East  Level Estimated
01:46AM 48.1612 -27.2112 85° East  Level Estimated
01:47AM 48.1721 -26.9952 86° East  Level Estimated
01:48AM 48.1826 -26.7791 86° East  Level Estimated
01:49AM 48.1927 -26.5629 86° East  Level Estimated
01:50AM 48.2024 -26.3466 86° East  Level Estimated
01:51AM 48.2117 -26.1303 86° East  Level Estimated
01:52AM 48.2206 -25.9139 86° East  Level Estimated
01:53AM 48.2291 -25.6974 87° East  Level Estimated
01:54AM 48.2372 -25.4808 87° East  Level Estimated
01:55AM 48.2449 -25.2642 87° East  Level Estimated
01:56AM 48.2521 -25.0475 87° East  Level Estimated
01:57AM 48.2590 -24.8307 87° East  Level Estimated
01:58AM 48.2654 -24.6139 87° East  Level Estimated
01:59AM 48.2715 -24.3971 88° East  Level Estimated
02:00AM 48.2771 -24.1802 88° East  Level Estimated
02:01AM 48.2823 -23.9632 88° East  Level Estimated
02:02AM 48.2871 -23.7462 88° East  Level Estimated
02:03AM 48.2915 -23.5292 88° East  Level Estimated
02:04AM 48.2956 -23.3121 88° East  Level Estimated
02:05AM 48.2991 -23.0950 88° East  Level Estimated
02:06AM 48.3023 -22.8778 89° East  Level Estimated
02:07AM 48.3051 -22.6607 89° East  Level Estimated
02:08AM 48.3074 -22.4435 89° East  Level Estimated
02:09AM 48.3094 -22.2263 89° East  Level Estimated
02:10AM 48.3110 -22.0091 89° East  Level Estimated
02:11AM 48.3121 -21.7919 89° East  Level Estimated
02:12AM 48.3128 -21.5746 90° East  Level Estimated
02:13AM 48.3131 -21.3574 90° East  Level Estimated
02:14AM 48.3131 -21.1402 90° East  Level Estimated
02:15AM 48.3126 -20.9229 90° East  Level Estimated
02:16AM 48.3116 -20.7057 90° East  Level Estimated
02:17AM 48.3103 -20.4885 90° East  Level Estimated
02:18AM 48.3086 -20.2712 91° East  Level Estimated
02:19AM 48.3065 -20.0541 91° East  Level Estimated
02:20AM 48.3039 -19.8373 91° East  Level Estimated
02:21AM 48.3010 -19.6205 91° East  Level Estimated
02:22AM 48.2976 -19.4037 91° East  Level Estimated
02:23AM 48.2939 -19.1870 91° East  Level Estimated
02:24AM 48.2897 -18.9703 92° East  Level Estimated
02:25AM 48.2851 -18.7537 92° East  Level Estimated
02:26AM 48.2802 -18.5371 92° East  Level Estimated
02:27AM 48.2748 -18.3205 92° East  Level Estimated
02:28AM 48.2690 -18.1040 92° East  Level Estimated
02:29AM 48.2628 -17.8875 92° East  Level Estimated
02:30AM 48.2562 -17.6711 93° East  Level Estimated
02:31AM 48.2491 -17.4547 93° East  Level Estimated
02:32AM 48.2417 -17.2384 93° East  Level Estimated
02:33AM 48.2339 -17.0222 93° East  Level Estimated
02:34AM 48.2257 -16.8060 93° East  Level Estimated
02:35AM 48.2170 -16.5900 93° East  Level Estimated
02:36AM 48.2080 -16.3739 94° East  Level Estimated
02:37AM 48.1986 -16.1580 94° East  Level Estimated
02:38AM 48.1887 -15.9421 94° East  Level Estimated
02:39AM 48.1785 -15.7264 94° East  Level Estimated
02:40AM 48.1678 -15.5107 94° East  Level Estimated
02:41AM 48.1567 -15.2951 94° East  Level Estimated
02:42AM 48.1453 -15.0796 94° East  Level Estimated
02:43AM 48.1334 -14.8642 95° East  Level Estimated
02:44AM 48.1212 -14.6489 95° East  Level Estimated
02:45AM 48.1085 -14.4337 95° East  Level Estimated
02:46AM 48.0954 -14.2186 95° East  Level Estimated
02:47AM 48.0820 -14.0036 95° East  Level Estimated
02:48AM 48.0681 -13.7887 95° East  Level Estimated
02:49AM 48.0538 -13.5740 96° East  Level Estimated
02:50AM 48.0391 -13.3594 96° East  Level Estimated
02:51AM 48.0241 -13.1449 96° East  Level Estimated
02:52AM 48.0086 -12.9305 96° East  Level Estimated
02:53AM 47.9927 -12.7163 96° East  Level Estimated
02:54AM 47.9765 -12.5022 96° East  Level Estimated
02:55AM 47.9598 -12.2882 97° East  Level Estimated
02:56AM 47.9427 -12.0744 97° East  Level Estimated
02:57AM 47.9253 -11.8607 97° East  Level Estimated
02:58AM 47.9074 -11.6471 97° East  Level Estimated
02:58AM 49.1920 -10.9260 97° East 525 604 33,000  Level FlightAware
02:58AM 49.1800 -10.8040 99° East 525 604 33,000  Level FlightAware
02:59AM 49.1700 -10.6920 98° East 525 604 33,000  Level FlightAware
02:59AM 49.1600 -10.5790 98° East 525 604 33,000  Level FlightAware
03:00AM 49.1490 -10.4670 98° East 525 604 33,000  Level FlightAware
03:01AM 49.1390 -10.3540 98° East 525 604 33,000  Level FlightAware
03:01AM 49.1290 -10.2420 98° East 525 604 33,000  Level FlightAware
03:02AM 49.1180 -10.1290 98° East 525 604 33,000  Level FlightAware
03:02AM 49.1080 -10.0170 98° East 525 604 33,000  Level FlightAware
03:03AM 49.0970 -9.9010 98° East 525 604 33,000  Level FlightAware
03:04AM 49.0540 -9.6130 103° East 520 598 33,000 240 Level FlightAware
03:04AM 49.0400 -9.4830 99° East 520 598 33,300 960 Climbing FlightAware
03:05AM 49.0270 -9.3680 100° East 517 595 34,100 1,500 Climbing FlightAware
03:05AM 49.0230 -9.3360 101° East 516 594 34,900 720 Climbing FlightAware
03:06AM 48.9970 -9.1110 100° East 515 593 35,000  Climbing FlightAware
03:07AM 48.9830 -8.9677 100° East 498 573 34,900  Descending FlightAware UK
03:07AM 48.9820 -8.9800 100° East 514 592 35,000 120 Climbing FlightAware
03:07AM 48.9650 -8.8380 100° East 513 590 35,000  Level FlightAware
03:08AM 48.9520 -8.7280 100° East 512 589 35,000  Level FlightAware
03:09AM 48.9320 -8.5620 100° East 511 588 35,000  Level FlightAware
03:09AM 48.9170 -8.4390 100° East 509 586 35,000 -120 Level FlightAware
03:10AM 48.9003 -8.3240 100° East 496 571 34,900  Descending FlightAware UK
03:10AM 48.9030 -8.3230 100° East 508 585 35,000 120 Climbing FlightAware
03:10AM 48.8890 -8.2040 100° East 507 583 35,000  Level FlightAware
03:11AM 48.8810 -8.1410 101° East 507 583 35,000  Level FlightAware
03:11AM 48.8600 -8.0360 107° East 504 580 35,000 -180 Level FlightAware
03:12AM 48.8274 -7.9170 107° East 494 568 34,900  Descending FlightAware UK
03:12AM 48.8270 -7.9110 107° East 504 580 35,000 120 Climbing FlightAware
03:12AM 48.7990 -7.8020 111° Southeast 504 580 35,000  Level FlightAware
03:13AM 48.7700 -7.6830 110° East 505 581 35,000  Level FlightAware
03:13AM 48.7410 -7.5590 109° East 506 582 35,000  Level FlightAware
03:14AM 48.7150 -7.4600 112° Southeast 506 582 35,000  Level FlightAware
03:15AM 48.6840 -7.3380 111° Southeast 507 583 35,000 -120 Level FlightAware
03:15AM 48.6542 -7.2240 111° Southeast 496 571 34,900  Descending FlightAware UK
03:15AM 48.6520 -7.2160 111° Southeast 507 583 35,000 120 Climbing FlightAware
03:16AM 48.6210 -7.0980 112° Southeast 507 583 35,000  Level FlightAware
03:16AM 48.5940 -6.9920 111° Southeast 507 583 35,000  Level FlightAware
03:17AM 48.5620 -6.8740 112° Southeast 507 583 35,000  Level FlightAware
03:18AM 48.5320 -6.7590 111° Southeast 507 583 35,000  Level FlightAware
03:18AM 48.5030 -6.6510 112° Southeast 507 583 35,000 -120 Level FlightAware
03:19AM 48.4716 -6.5328 112° Southeast 498 573 34,900  Descending FlightAware UK
03:19AM 48.4710 -6.5330 112° Southeast 506 582 35,000 120 Climbing FlightAware
03:19AM 48.4390 -6.4120 112° Southeast 507 583 35,000  Level FlightAware
03:20AM 48.4110 -6.3110 113° Southeast 507 583 35,000  Level FlightAware
03:20AM 48.3790 -6.1940 112° Southeast 507 583 35,000  Level FlightAware
03:21AM 48.3460 -6.0730 112° Southeast 508 585 35,000  Level FlightAware
03:22AM 48.3150 -5.9620 113° Southeast 509 586 35,000  Level FlightAware
03:22AM 48.2850 -5.8510 112° Southeast 509 586 35,000 -120 Level FlightAware
03:23AM 48.2509 -5.7290 112° Southeast 498 573 34,900  Descending FlightAware UK
03:23AM 48.2530 -5.7340 112° Southeast 509 586 35,000  Climbing FlightAware
03:23AM 48.2236 -5.6314 112° Southeast 498 573 34,900  Descending FlightAware UK
03:23AM 48.2230 -5.6300 112° Southeast 509 586 35,000 120 Climbing FlightAware
03:24AM 48.1880 -5.5030 112° Southeast 509 586 35,000  Level FlightAware
03:25AM 48.1530 -5.3830 114° Southeast 510 587 35,000  Level FlightAware
03:25AM 48.1230 -5.2760 113° Southeast 509 586 35,000  Level FlightAware
03:26AM 48.0910 -5.1630 113° Southeast 508 585 35,000  Level FlightAware
03:26AM 48.0570 -5.0430 113° Southeast 508 585 35,000  Level FlightAware
03:27AM 48.0300 -4.9500 113° Southeast 508 585 35,000  Level FlightAware
03:27AM 47.9950 -4.8310 114° Southeast 507 583 35,000  Level FlightAware
03:28AM 47.9610 -4.7130 113° Southeast 507 583 35,000  Level FlightAware
03:29AM 47.9290 -4.6030 113° Southeast 507 583 35,000  Level FlightAware
03:29AM 47.8950 -4.4850 113° Southeast 507 583 35,000  Level FlightAware
03:30AM 47.8640 -4.3830 114° Southeast 506 582 35,000  Level FlightAware
03:30AM 47.8300 -4.2650 113° Southeast 505 581 35,000  Level FlightAware
03:31AM 47.7970 -4.1540 114° Southeast 504 580 35,000  Level FlightAware
03:31AM 47.7660 -4.0500 114° Southeast 504 580 35,000  Level FlightAware
03:32AM 47.7545 -4.0119 114° Southeast 504 580 35,000  Level FlightAware ADS-B (LFBU / ANG)
03:33AM 47.6960 -3.8200 114° Southeast 501 577 35,000  Level FlightAware
03:33AM 47.6848 -3.7823 114° Southeast 501 577 35,000  Level FlightAware ADS-B (LFBU / ANG)
03:34AM 47.6330 -3.6100 114° Southeast 499 574 35,000  Level FlightAware
03:34AM 47.5990 -3.4980 114° Southeast 499 574 35,000  Level FlightAware
03:35AM 47.5660 -3.3900 114° Southeast 499 574 35,000  Level FlightAware
03:36AM 47.5300 -3.2720 114° Southeast 498 573 35,000  Level FlightAware
03:36AM 47.4990 -3.1730 115° Southeast 498 573 35,000  Level FlightAware
03:37AM 47.4670 -3.0710 115° Southeast 498 573 35,000  Level FlightAware
03:37AM 47.4506 -3.0184 115° Southeast 498 573 35,000  Level FlightAware ADS-B (LFBU / ANG)
03:38AM 47.3980 -2.8490 115° Southeast 496 571 35,000  Level FlightAware
03:38AM 47.3854 -2.8092 115° Southeast 497 572 35,000  Level FlightAware ADS-B (LFBU / ANG)
03:39AM 47.3307 -2.6374 115° Southeast 498 573 35,000  Level FlightAware ADS-B (LFBU / ANG)
03:40AM 47.2970 -2.5300 115° Southeast 497 572 35,000  Level FlightAware
03:40AM 47.2686 -2.4416 115° Southeast 497 572 35,000  Level FlightAware ADS-B (LFBU / ANG)
03:41AM 47.2297 -2.3193 115° Southeast 497 572 35,000  Level FlightAware ADS-B (LFBU / ANG)
03:41AM 47.1930 -2.2060 115° Southeast 495 570 35,000  Level FlightAware
03:42AM 47.1598 -2.1003 115° Southeast 495 570 35,000  Level FlightAware ADS-B (LFBU / ANG)
03:43AM 47.1230 -1.9850 115° Southeast 494 568 35,000  Level FlightAware
03:43AM 47.0922 -1.8944 116° Southeast 495 570 35,000  Level FlightAware ADS-B (LFBU / ANG)
03:44AM 47.0570 -1.7850 115° Southeast 495 570 35,000  Level FlightAware
03:44AM 47.0332 -1.7129 116° Southeast 496 571 35,000  Level FlightAware ADS-B (LFBU / ANG)
03:45AM 46.9820 -1.5560 116° Southeast 497 572 35,000  Level FlightAware
03:45AM 46.9765 -1.5406 118° Southeast 497 572 35,000  Level FlightAware ADS-B (LFBU / ANG)
03:46AM 46.9154 -1.3558 116° Southeast 499 574 35,000  Level FlightAware ADS-B (LFBU / ANG)
03:47AM 46.8770 -1.2410 116° Southeast 499 574 35,000  Level FlightAware
03:47AM 46.8534 -1.1711 116° Southeast 499 574 35,000  Level FlightAware ADS-B (LFBU / ANG)
03:48AM 46.8090 -1.0380 116° Southeast 498 573 35,000  Level FlightAware
03:48AM 46.7700 -0.9240 117° Southeast 498 573 35,000  Level FlightAware
03:49AM 46.7380 -0.8280 116° Southeast 498 573 35,000  Level FlightAware
03:50AM 46.7020 -0.7190 116° Southeast 497 572 35,000  Level FlightAware
03:50AM 46.6746 -0.6276 114° Southeast 495 570 35,000  Level FlightAware ADS-B (LFBU / ANG)
03:51AM 46.6370 -0.5050 114° Southeast 494 568 35,000  Level FlightAware
03:51AM 46.6189 -0.4414 113° Southeast 495 570 35,000  Level FlightAware ADS-B (LFBU / ANG)
03:52AM 46.5760 -0.2980 113° Southeast 493 567 35,000  Level FlightAware
03:52AM 46.5637 -0.2587 114° Southeast 494 568 35,000  Level FlightAware ADS-B (LFBU / ANG)
03:53AM 46.5076 -0.0739 114° Southeast 495 570 35,000  Level FlightAware ADS-B (LFBU / ANG)
03:54AM 46.4797 0.0201 113° Southeast 494 568 35,000  Level FlightAware ADS-B (LFBU / ANG)
03:54AM 46.4516 0.1110 114° Southeast 494 568 35,000  Level FlightAware ADS-B (LFBU / ANG)
03:55AM 46.4120 0.2380 114° Southeast 494 568 35,000  Level FlightAware
03:55AM 46.3963 0.2921 113° Southeast 493 567 35,000  Level FlightAware ADS-B (LFBU / ANG)
03:56AM 46.3404 0.4727 114° Southeast 492 566 35,000  Level FlightAware ADS-B (LFBU / ANG)
03:57AM 46.2848 0.6520 114° Southeast 491 565 35,000  Level FlightAware ADS-B (LFBU / ANG)
03:58AM 46.2450 0.7770 115° Southeast 491 565 35,000  Level FlightAware
03:58AM 46.2387 0.7982 113° Southeast 491 565 35,000  Level FlightAware ADS-B (LFBU / ANG)
03:59AM 46.2004 0.9207 114° Southeast 491 565 35,000  Level FlightAware ADS-B (LFBU / ANG)
03:59AM 46.1724 1.0097 114° Southeast 491 565 35,000  Level FlightAware ADS-B (LFBU / ANG)
04:00AM 46.1146 1.1911 115° Southeast 490 564 35,000  Level FlightAware ADS-B (LFBU / ANG)
04:01AM 46.0800 1.3010 114° Southeast 490 564 35,000  Level FlightAware
04:01AM 46.0601 1.3600 116° Southeast 492 566 35,000  Level FlightAware ADS-B (LFBU / ANG)
04:02AM 46.0299 1.4551 115° Southeast 494 568 35,000  Level FlightAware ADS-B (LFBU / ANG)
04:03AM 45.9808 1.6066 115° Southeast 493 567 35,000  Level FlightAware ADS-B (LFBU / ANG)
04:03AM 45.9452 1.7161 115° Southeast 493 567 35,000  Level FlightAware ADS-B (LFBU / ANG)
04:04AM 45.9175 1.8022 115° Southeast 493 567 35,000  Level FlightAware ADS-B (LFBU / ANG)
04:04AM 45.8700 1.9467 115° Southeast 491 565 35,000  Level FlightAware ADS-B (LFBU / ANG)
04:05AM 45.8430 2.0290 115° Southeast 489 563 35,000  Level FlightAware
04:05AM 45.8307 2.0669 115° Southeast 489 563 35,000  Level FlightAware ADS-B (LFBU / ANG)
04:06AM 45.8000 2.1600 115° Southeast 487 560 35,000  Level FlightAware
04:06AM 45.7796 2.2218 115° Southeast 488 562 35,000  Level FlightAware ADS-B (LFBU / ANG)
04:07AM 45.7406 2.3384 116° Southeast 489 563 35,000  Level FlightAware ADS-B (LFBU / ANG)
04:07AM 45.7113 2.4259 116° Southeast 488 562 35,000  Level FlightAware ADS-B (LFBU / ANG)
04:08AM 45.6610 2.5770 115° Southeast 487 560 35,000  Level FlightAware
04:09AM 45.6324 2.6612 116° Southeast 488 562 35,000  Level FlightAware ADS-B (LFBU / ANG)
04:09AM 45.5950 2.7710 116° Southeast 487 560 35,000  Level FlightAware
04:09AM 45.5840 2.8030 116° Southeast 485 558 35,000  Level FlightAware ADS-B (LFBU / ANG)
04:10AM 45.5600 2.8920 111° Southeast 481 554 35,000  Level FlightAware
04:10AM 45.5598 2.8920 177° South 481 554 35,000  Level FlightAware ADS-B (LFBU / ANG)
04:11AM 45.5170 3.0550 111° Southeast 480 552 35,000  Level FlightAware
04:12AM 45.4780 3.1920 112° Southeast 477 549 35,000  Level FlightAware
04:12AM 45.4545 3.2737 112° Southeast 478 550 35,000  Level FlightAware ADS-B (LFBU / ANG)
04:13AM 45.4180 3.4010 112° Southeast 476 548 35,000  Level FlightAware
04:13AM 45.3890 3.5020 112° Southeast 461 531 35,000  Level FlightAware
04:14AM 45.3590 3.6060 112° Southeast 472 543 35,000  Level FlightAware
04:15AM 45.3310 3.7030 112° Southeast 471 542 35,000  Level FlightAware
04:15AM 45.2970 3.8230 112° Southeast 470 541 35,000  Level FlightAware
04:16AM 45.2580 3.9540 113° Southeast 469 540 35,000  Level FlightAware
04:17AM 45.2270 4.0590 113° Southeast 469 540 35,000  Level FlightAware
04:17AM 45.1970 4.1650 112° Southeast 470 541 35,000  Level FlightAware
04:18AM 45.1670 4.2670 113° Southeast 471 542 35,000  Level FlightAware
04:18AM 45.1340 4.3750 113° Southeast 471 542 35,000  Level FlightAware
04:19AM 45.1040 4.4570 117° Southeast 475 547 35,000  Level FlightAware
04:19AM 45.0580 4.5350 130° Southeast 478 550 35,000  Level FlightAware
04:20AM 45.0090 4.6170 130° Southeast 477 549 35,000  Level FlightAware
04:21AM 44.9550 4.7040 131° Southeast 475 547 35,000  Level FlightAware
04:21AM 44.9110 4.7740 132° Southeast 479 551 35,000  Level FlightAware
04:22AM 44.8520 4.8710 131° Southeast 475 547 35,000  Level FlightAware
04:22AM 44.8030 4.9500 131° Southeast 474 545 35,000  Level FlightAware
04:23AM 44.7590 5.0210 131° Southeast 472 543 35,000  Level FlightAware
04:24AM 44.7040 5.1090 131° Southeast 470 541 35,000  Level FlightAware
04:24AM 44.6580 5.1820 132° Southeast 469 540 35,000  Level FlightAware
04:25AM 44.6090 5.2600 131° Southeast 469 540 35,000  Level FlightAware
04:25AM 44.5550 5.3540 129° Southeast 466 536 35,000  Level FlightAware
04:26AM 44.5150 5.4360 124° Southeast 466 536 35,000  Level FlightAware
04:26AM 44.4690 5.5250 126° Southeast 469 540 35,000  Level FlightAware
04:27AM 44.4250 5.6080 127° Southeast 472 543 35,000  Level FlightAware
04:28AM 44.3830 5.6890 126° Southeast 474 545 35,000  Level FlightAware
04:28AM 44.3360 5.7790 126° Southeast 476 548 35,000  Level FlightAware
04:29AM 44.2940 5.8620 125° Southeast 477 549 35,000  Level FlightAware
04:29AM 44.2450 5.9570 126° Southeast 475 547 35,000  Level FlightAware
04:30AM 44.2040 6.0360 126° Southeast 475 547 35,000  Level FlightAware
04:31AM 44.1530 6.1350 126° Southeast 474 545 35,000  Level FlightAware
04:31AM 44.1070 6.2220 126° Southeast 476 548 35,000  Level FlightAware
04:32AM 44.0660 6.3010 126° Southeast 477 549 35,000  Level FlightAware
04:32AM 44.0150 6.3980 126° Southeast 479 551 35,000  Level FlightAware
04:33AM 43.9740 6.4780 125° Southeast 480 552 35,000  Level FlightAware
04:33AM 43.9270 6.5680 126° Southeast 481 554 35,000  Level FlightAware
04:34AM 43.8740 6.6670 127° Southeast 482 555 35,000  Level FlightAware
04:35AM 43.8220 6.7710 125° Southeast 479 551 35,000  Level FlightAware
04:35AM 43.7810 6.8650 121° Southeast 477 549 35,000  Level FlightAware
04:36AM 43.7400 6.9550 122° Southeast 476 548 35,000  Level FlightAware
04:37AM 43.7000 7.0460 121° Southeast 475 547 35,000  Level FlightAware
04:37AM 43.6600 7.1360 122° Southeast 475 547 35,000  Level FlightAware
04:38AM 43.6110 7.2450 122° Southeast 476 548 35,000  Level FlightAware
04:38AM 43.5710 7.3350 122° Southeast 478 550 35,000  Level FlightAware
04:39AM 43.5300 7.4260 122° Southeast 480 552 35,000  Level FlightAware
04:40AM 43.4880 7.5170 122° Southeast 482 555 35,000  Level FlightAware
04:40AM 43.4470 7.6080 122° Southeast 483 556 35,000  Level FlightAware
04:41AM 43.4030 7.7070 121° Southeast 483 556 35,000  Level FlightAware
04:41AM 43.3650 7.7880 123° Southeast 483 556 35,000  Level FlightAware
04:42AM 43.3300 7.8660 122° Southeast 484 557 35,000  Level FlightAware
04:43AM 43.2770 7.9820 122° Southeast 483 556 35,000  Level FlightAware
04:43AM 43.2380 8.0650 123° Southeast 483 556 35,000  Level FlightAware
04:44AM 43.1940 8.1610 122° Southeast 484 557 35,000  Level FlightAware
04:44AM 43.1510 8.2540 122° Southeast 484 557 35,000  Level FlightAware
04:45AM 43.1120 8.3370 123° Southeast 482 555 35,000  Level FlightAware
04:46AM 43.0680 8.4320 122° Southeast 483 556 35,000  Level FlightAware
04:46AM 43.0340 8.5070 122° Southeast 484 557 35,000  Level FlightAware
04:47AM 42.9880 8.6020 123° Southeast 487 560 35,000  Level FlightAware
04:47AM 42.9440 8.6960 123° Southeast 488 562 35,000  Level FlightAware
04:48AM 42.8990 8.7940 122° Southeast 491 565 35,000  Level FlightAware
04:48AM 42.8530 8.8910 123° Southeast 492 566 35,000  Level FlightAware
04:49AM 42.8150 8.9690 124° Southeast 494 568 35,000  Level FlightAware
04:50AM 42.7710 9.0630 123° Southeast 494 568 35,000  Level FlightAware
04:50AM 42.7220 9.1650 123° Southeast 493 567 35,000  Level FlightAware
04:51AM 42.6930 9.2480 115° Southeast 495 570 35,000  Level FlightAware
04:51AM 42.6640 9.3470 112° Southeast 496 571 35,000  Level FlightAware
04:52AM 42.6300 9.4560 113° Southeast 495 570 35,000  Level FlightAware
04:52AM 42.5990 9.5520 114° Southeast 494 568 35,000  Level FlightAware
04:53AM 42.5720 9.6500 110° East 493 567 35,000  Level FlightAware
04:54AM 42.5410 9.7570 111° Southeast 494 568 35,000  Level FlightAware
04:54AM 42.5120 9.8550 112° Southeast 494 568 35,000  Level FlightAware
04:55AM 42.4820 9.9550 112° Southeast 495 570 35,000  Level FlightAware
04:55AM 42.4530 10.0560 111° Southeast 497 572 35,000  Level FlightAware
04:56AM 42.4210 10.1630 112° Southeast 499 574 35,000 480 Level FlightAware
04:57AM 42.3930 10.2560 112° Southeast 501 577 35,600 1,200 Climbing FlightAware
04:57AM 42.3600 10.3660 112° Southeast 500 575 36,400 1,140 Climbing FlightAware
04:58AM 42.3300 10.4670 112° Southeast 498 573 37,000 420 Climbing FlightAware
04:58AM 42.2990 10.5680 113° Southeast 499 574 36,900  Descending FlightAware
04:59AM 42.2710 10.6630 112° Southeast 497 572 37,000 60 Climbing FlightAware
05:00AM 42.2380 10.7730 112° Southeast 497 572 37,000  Level FlightAware
05:00AM 42.2080 10.8700 113° Southeast 500 575 37,000  Level FlightAware
05:01AM 42.1760 10.9740 113° Southeast 502 578 37,000  Level FlightAware
05:01AM 42.1490 11.0640 112° Southeast 503 579 37,000  Level FlightAware
05:02AM 42.1160 11.1710 113° Southeast 503 579 37,000  Level FlightAware
05:02AM 42.0940 11.2230 120° Southeast 498 573 37,000  Level FlightAware
05:03AM 42.0420 11.3130 128° Southeast 498 573 37,000  Level FlightAware
05:03AM 41.9890 11.3940 131° Southeast 498 573 37,000  Level FlightAware
05:04AM 41.9350 11.4740 132° Southeast 497 572 37,000  Level FlightAware
05:05AM 41.8770 11.5580 133° Southeast 495 570 37,000  Level FlightAware
05:05AM 41.8280 11.6310 132° Southeast 496 571 37,000  Level FlightAware
05:06AM 41.7770 11.7060 132° Southeast 496 571 37,000  Level FlightAware
05:06AM 41.7170 11.7950 132° Southeast 497 572 37,000  Level FlightAware
05:07AM 41.6620 11.8780 132° Southeast 497 572 37,000  Level FlightAware
05:07AM 41.6110 11.9530 132° Southeast 496 571 37,000  Level FlightAware
05:08AM 41.5580 12.0290 133° Southeast 494 568 37,000  Level FlightAware
05:09AM 41.5010 12.1120 133° Southeast 491 565 37,000  Level FlightAware
05:09AM 41.4480 12.1880 133° Southeast 490 564 37,000  Level FlightAware
05:10AM 41.3960 12.2660 132° Southeast 488 562 37,000  Level FlightAware
05:10AM 41.3420 12.3430 133° Southeast 488 562 37,000  Level FlightAware
05:11AM 41.2890 12.4200 132° Southeast 487 560 37,000  Level FlightAware
05:11AM 41.2470 12.4910 128° Southeast 494 568 37,000  Level FlightAware
05:12AM 41.2080 12.5810 120° Southeast 495 570 37,000  Level FlightAware
05:13AM 41.1660 12.6750 121° Southeast 493 567 37,000  Level FlightAware
05:13AM 41.1280 12.7570 122° Southeast 494 568 37,000  Level FlightAware
05:14AM 41.0830 12.8490 123° Southeast 495 570 37,000  Level FlightAware
05:14AM 41.0450 12.9280 123° Southeast 495 570 37,000  Level FlightAware
05:15AM 40.9940 13.0320 123° Southeast 495 570 37,000  Level FlightAware
05:15AM 40.9560 13.1120 122° Southeast 497 572 37,000  Level FlightAware
05:16AM 40.9110 13.2110 121° Southeast 498 573 37,000  Level FlightAware
05:17AM 40.8670 13.3050 122° Southeast 499 574 37,000  Level FlightAware
05:17AM 40.8300 13.3830 122° Southeast 501 577 37,000  Level FlightAware
05:18AM 40.7840 13.4820 122° Southeast 501 577 37,000  Level FlightAware
05:18AM 40.7400 13.5750 122° Southeast 502 578 37,000  Level FlightAware
05:19AM 40.7010 13.6580 122° Southeast 503 579 37,000  Level FlightAware
05:20AM 40.6560 13.7550 121° Southeast 503 579 37,000  Level FlightAware
05:20AM 40.6120 13.8480 122° Southeast 501 577 37,000  Level FlightAware
05:21AM 40.5730 13.9310 122° Southeast 502 578 37,000  Level FlightAware
05:21AM 40.5310 14.0190 122° Southeast 503 579 37,000  Level FlightAware
05:22AM 40.4830 14.1170 123° Southeast 504 580 37,000  Level FlightAware
05:22AM 40.4400 14.2080 122° Southeast 504 580 37,000  Level FlightAware
05:23AM 40.3970 14.2990 122° Southeast 505 581 37,000  Level FlightAware
05:24AM 40.3510 14.3920 123° Southeast 506 582 37,000  Level FlightAware
05:24AM 40.3120 14.4720 123° Southeast 506 582 37,000  Level FlightAware
05:25AM 40.2630 14.5730 122° Southeast 504 580 37,000  Level FlightAware
05:25AM 40.2210 14.6610 122° Southeast 505 581 37,000  Level FlightAware
05:26AM 40.1750 14.7560 122° Southeast 506 582 37,000  Level FlightAware
05:27AM 40.1340 14.8390 123° Southeast 507 583 37,000  Level FlightAware
05:27AM 40.0890 14.9290 123° Southeast 509 586 37,000  Level FlightAware
05:28AM 40.0440 15.0230 122° Southeast 511 588 37,000  Level FlightAware
05:28AM 40.0030 15.1060 123° Southeast 513 590 37,000  Level FlightAware
05:29AM 39.9530 15.2070 123° Southeast 514 592 37,000  Level FlightAware
05:29AM 39.9070 15.2980 123° Southeast 512 589 37,000  Level FlightAware
05:30AM 39.8610 15.3940 122° Southeast 512 589 37,000  Level FlightAware
05:31AM 39.8190 15.4760 124° Southeast 511 588 37,000  Level FlightAware
05:31AM 39.7740 15.5660 123° Southeast 511 588 37,000  Level FlightAware
05:32AM 39.7280 15.6590 123° Southeast 510 587 37,000  Level FlightAware
05:32AM 39.6860 15.7410 124° Southeast 508 585 37,000  Level FlightAware
05:33AM 39.6370 15.8380 123° Southeast 508 585 37,000  Level FlightAware
05:34AM 39.6010 15.9270 118° Southeast 513 590 37,000  Level FlightAware
05:34AM 39.5670 16.0290 113° Southeast 515 593 37,000  Level FlightAware
05:35AM 39.5390 16.1270 110° East 516 594 37,000  Level FlightAware
05:35AM 39.5110 16.2250 110° East 514 592 37,000  Level FlightAware
05:36AM 39.4780 16.3340 111° Southeast 515 593 37,000  Level FlightAware
05:36AM 39.4460 16.4370 112° Southeast 515 593 37,000  Level FlightAware
05:37AM 39.4150 16.5370 112° Southeast 514 592 37,000  Level FlightAware
05:38AM 39.3870 16.6280 112° Southeast 511 588 37,000  Level FlightAware
05:38AM 39.3560 16.7290 112° Southeast 505 581 37,000  Level FlightAware
05:39AM 39.3250 16.8300 112° Southeast 502 578 37,000  Level FlightAware
05:39AM 39.2960 16.9220 112° Southeast 501 577 37,000  Level FlightAware
05:40AM 39.2640 17.0240 112° Southeast 502 578 37,000  Level FlightAware
05:40AM 39.2390 17.1020 112° Southeast 503 579 37,000  Level FlightAware
05:41AM 39.1970 17.2420 111° Southeast 503 579 37,000  Level FlightAware
05:42AM 39.1660 17.3390 112° Southeast 501 577 37,000  Level FlightAware
05:42AM 39.1380 17.4270 112° Southeast 498 573 37,000  Level FlightAware
05:43AM 39.1130 17.5060 112° Southeast 496 571 37,000  Level FlightAware
05:44AM 39.0890 17.5830 112° Southeast 494 568 37,000  Level FlightAware
05:44AM 39.0460 17.7180 112° Southeast 492 566 37,000  Level FlightAware
05:45AM 39.0140 17.8160 113° Southeast 491 565 37,000  Level FlightAware
05:46AM 38.9800 17.9230 112° Southeast 491 565 37,000  Level FlightAware
05:46AM 38.9400 18.0480 112° Southeast 493 567 37,000  Level FlightAware
05:47AM 38.9180 18.1150 113° Southeast 493 567 37,000  Level FlightAware
05:47AM 38.8890 18.2070 112° Southeast 493 567 37,000  Level FlightAware
05:48AM 38.8550 18.3100 113° Southeast 497 572 37,000  Level FlightAware
05:49AM 38.8220 18.4110 113° Southeast 497 572 37,000  Level FlightAware
05:49AM 38.7780 18.5490 112° Southeast 496 571 37,000  Level FlightAware
05:50AM 38.7520 18.6270 113° Southeast 495 570 37,000  Level FlightAware
05:50AM 38.7250 18.7080 113° Southeast 495 570 37,000  Level FlightAware
05:51AM 38.6890 18.8130 114° Southeast 496 571 37,000  Level FlightAware
05:52AM 38.6560 18.9160 112° Southeast 496 571 37,000  Level FlightAware
05:52AM 38.6240 19.0130 113° Southeast 496 571 37,000  Level FlightAware
05:53AM 38.5870 19.1210 114° Southeast 497 572 37,000  Level FlightAware
05:54AM 38.5490 19.2360 113° Southeast 502 578 37,000  Level FlightAware
05:54AM 38.5220 19.3150 114° Southeast 508 585 37,000  Level FlightAware
05:55AM 38.4820 19.4340 113° Southeast 509 586 37,000  Level FlightAware
05:55AM 38.4560 19.5110 113° Southeast 510 587 37,000  Level FlightAware
05:56AM 38.4230 19.6080 113° Southeast 510 587 37,000 120 Level FlightAware
05:57AM 38.3860 19.7180 113° Southeast 509 586 37,200 900 Climbing FlightAware
05:57AM 38.3550 19.8050 114° Southeast 505 581 38,000 1,080 Climbing FlightAware
05:58AM 38.3090 19.9410 113° Southeast 504 580 38,700 720 Climbing FlightAware
05:59AM 38.2810 20.0230 113° Southeast 507 583 39,000 240 Climbing FlightAware
05:59AM 38.2510 20.1080 114° Southeast 511 588 39,000  Level FlightAware
06:00AM 38.2200 20.1970 114° Southeast 514 592 39,000  Level FlightAware
06:00AM 38.1700 20.3400 114° Southeast 515 593 39,000  Level FlightAware
06:01AM 38.1380 20.4320 114° Southeast 518 596 39,000  Level FlightAware
06:01AM 38.0990 20.5430 114° Southeast 521 600 39,000 -120 Level FlightAware
06:02AM 38.0650 20.6340 115° Southeast 521 600 38,900  Descending FlightAware
06:03AM 38.0270 20.7340 116° Southeast 525 604 39,000 60 Climbing FlightAware
06:03AM 37.9890 20.8310 116° Southeast 527 606 39,000  Level FlightAware
06:04AM 37.9530 20.9260 116° Southeast 530 610 39,000  Level FlightAware
06:04AM 37.9190 21.0160 116° Southeast 533 613 39,000  Level FlightAware
06:05AM 37.8760 21.1280 116° Southeast 537 618 39,000  Level FlightAware
06:06AM 37.8390 21.2270 115° Southeast 539 620 39,000  Level FlightAware
06:06AM 37.8020 21.3210 116° Southeast 540 621 39,000  Level FlightAware
06:07AM 37.7620 21.4260 116° Southeast 542 624 39,000  Level FlightAware
06:07AM 37.7280 21.5150 116° Southeast 544 626 39,000  Level FlightAware
06:08AM 37.6840 21.6260 117° Southeast 545 627 39,000  Level FlightAware
06:08AM 37.6480 21.7200 116° Southeast 544 626 39,000  Level FlightAware
06:09AM 37.6070 21.8260 116° Southeast 543 625 39,000  Level FlightAware
06:10AM 37.5710 21.9160 117° Southeast 543 625 39,000  Level FlightAware
06:10AM 37.5290 22.0240 116° Southeast 542 624 39,000  Level FlightAware
06:11AM 37.4920 22.1170 117° Southeast 541 623 39,000  Level FlightAware
06:12AM 37.4480 22.2270 117° Southeast 541 623 39,000  Level FlightAware
06:12AM 37.4000 22.3580 115° Southeast 542 624 39,000  Level FlightAware
06:13AM 37.3670 22.4660 111° Southeast 541 623 39,000  Level FlightAware
06:13AM 37.3390 22.5610 110° East 540 621 39,000  Level FlightAware
06:14AM 37.3090 22.6640 110° East 538 619 39,000  Level FlightAware
06:15AM 37.2780 22.7690 110° East 536 617 39,000  Level FlightAware
06:15AM 37.2480 22.8740 110° East 535 616 39,000  Level FlightAware
06:16AM 37.2210 22.9670 110° East 535 616 39,000  Level FlightAware
06:16AM 37.1900 23.0690 111° Southeast 534 615 39,000  Level FlightAware
06:17AM 37.1580 23.1760 111° Southeast 536 617 39,000  Level FlightAware
06:17AM 37.1270 23.2810 110° East 536 617 39,000  Level FlightAware
06:18AM 37.0960 23.3830 111° Southeast 537 618 39,000  Level FlightAware
06:19AM 37.0680 23.4790 110° East 538 619 39,000  Level FlightAware
06:19AM 37.0370 23.5800 111° Southeast 536 617 39,000  Level FlightAware
06:20AM 37.0050 23.6850 111° Southeast 536 617 39,000  Level FlightAware
06:20AM 36.9720 23.7940 111° Southeast 534 615 39,000  Level FlightAware
06:21AM 36.9440 23.8840 111° Southeast 533 613 39,000  Level FlightAware
06:22AM 36.9120 23.9900 111° Southeast 531 611 39,000  Level FlightAware
06:22AM 36.8810 24.0900 111° Southeast 530 610 39,000  Level FlightAware
06:23AM 36.8500 24.1890 111° Southeast 527 606 39,000  Level FlightAware
06:23AM 36.8220 24.2800 111° Southeast 524 603 39,000  Level FlightAware
06:24AM 36.7910 24.3810 111° Southeast 522 601 39,000  Level FlightAware
06:24AM 36.7580 24.4880 111° Southeast 521 600 39,000  Level FlightAware
06:25AM 36.7260 24.5840 113° Southeast 518 596 39,000  Level FlightAware
06:26AM 36.6940 24.6680 115° Southeast 515 593 39,000  Level FlightAware
06:26AM 36.6570 24.7670 115° Southeast 511 588 39,000  Level FlightAware
06:27AM 36.6210 24.8660 114° Southeast 507 583 39,000  Level FlightAware
06:27AM 36.5910 24.9480 114° Southeast 506 582 39,000  Level FlightAware
06:28AM 36.5560 25.0430 115° Southeast 504 580 39,000  Level FlightAware
06:29AM 36.5200 25.1430 114° Southeast 503 579 39,000  Level FlightAware
06:29AM 36.4860 25.2330 115° Southeast 503 579 39,000  Level FlightAware
06:30AM 36.4530 25.3250 114° Southeast 504 580 39,000  Level FlightAware
06:30AM 36.4190 25.4170 115° Southeast 506 582 39,000  Level FlightAware
06:31AM 36.3850 25.5070 115° Southeast 507 583 39,000  Level FlightAware
06:31AM 36.3480 25.6070 115° Southeast 508 585 39,000  Level FlightAware
06:32AM 36.3170 25.6890 115° Southeast 510 587 39,000  Level FlightAware
06:33AM 36.2800 25.7880 115° Southeast 511 588 39,000  Level FlightAware
06:33AM 36.2450 25.8800 115° Southeast 511 588 39,000  Level FlightAware
06:34AM 36.2130 25.9650 115° Southeast 513 590 39,000  Level FlightAware
06:34AM 36.1690 26.0830 115° Southeast 515 593 39,000  Level FlightAware
06:35AM 36.1270 26.1930 115° Southeast 517 595 39,000  Level FlightAware
06:36AM 36.0930 26.2800 116° Southeast 517 595 39,000  Level FlightAware
06:36AM 36.0540 26.3820 115° Southeast 513 590 39,000  Level FlightAware
06:37AM 36.0250 26.4590 115° Southeast 513 590 39,000  Level FlightAware
06:37AM 35.9930 26.5480 114° Southeast 513 590 39,000  Level FlightAware
06:38AM 35.9470 26.6610 117° Southeast 512 589 39,000  Level FlightAware
06:39AM 35.9150 26.7490 114° Southeast 511 588 39,000  Level FlightAware
06:39AM 35.8760 26.8460 116° Southeast 515 593 39,000  Level FlightAware
06:40AM 35.8410 26.9340 116° Southeast 188 216 39,000  Level FlightAware
06:40AM 35.8000 27.0400 115° Southeast 515 593 39,000  Level FlightAware
06:41AM 35.7560 27.1510 116° Southeast 518 596 39,000  Level FlightAware
06:42AM 35.7180 27.2470 116° Southeast 519 597 39,000  Level FlightAware
06:42AM 35.6820 27.3370 116° Southeast 521 600 39,000  Level FlightAware
06:43AM 35.6450 27.4310 116° Southeast 523 602 39,000  Level FlightAware
06:44AM 35.6070 27.5270 116° Southeast 526 605 39,000  Level FlightAware
06:44AM 35.5730 27.6130 116° Southeast 528 608 39,000  Level FlightAware
06:45AM 35.5330 27.7130 116° Southeast 530 610 39,000  Level FlightAware
06:45AM 35.4940 27.8100 116° Southeast 532 612 39,000  Level FlightAware
06:46AM 35.4600 27.8940 116° Southeast 532 612 39,000  Level FlightAware
06:46AM 35.4260 27.9780 116° Southeast 533 613 39,000  Level FlightAware
06:47AM 35.3830 28.0860 116° Southeast 534 615 39,000  Level FlightAware
06:48AM 35.3430 28.1840 117° Southeast 534 615 39,000  Level FlightAware
06:48AM 35.3020 28.2850 116° Southeast 534 615 39,000  Level FlightAware
06:49AM 35.2630 28.3790 117° Southeast 534 615 39,000  Level FlightAware
06:49AM 35.2240 28.4730 117° Southeast 535 616 39,000  Level FlightAware
06:50AM 35.1790 28.5840 116° Southeast 535 616 39,000  Level FlightAware
06:51AM 35.1430 28.6710 117° Southeast 537 618 39,000  Level FlightAware
06:51AM 35.0950 28.7870 117° Southeast 537 618 39,000  Level FlightAware
06:52AM 35.0440 28.9090 117° Southeast 537 618 39,000  Level FlightAware
06:53AM 35.0000 29.0170 116° Southeast 538 619 39,000  Level FlightAware
06:53AM 34.9690 29.0900 117° Southeast 537 618 39,000  Level FlightAware
06:54AM 34.9210 29.2030 117° Southeast 536 617 39,000  Level FlightAware
06:54AM 34.8850 29.2890 117° Southeast 535 616 39,000  Level FlightAware
06:55AM 34.8500 29.3760 116° Southeast 535 616 39,000  Level FlightAware
06:56AM 34.8030 29.4840 118° Southeast 534 615 39,000  Level FlightAware
06:56AM 34.7540 29.5990 117° Southeast 534 615 39,000  Level FlightAware
06:57AM 34.7200 29.6820 116° Southeast 533 613 39,000  Level FlightAware
06:57AM 34.6800 29.7750 118° Southeast 533 613 39,000  Level FlightAware
06:58AM 34.6490 29.8460 118° Southeast 532 612 39,000  Level FlightAware
06:59AM 34.5810 30.0040 118° Southeast 532 612 39,000  Level FlightAware
07:00AM 34.5310 30.1120 119° Southeast 459 528 39,000  Level FlightAware
07:00AM 34.4860 30.2040 121° Southeast 532 612 39,000  Level FlightAware
07:01AM 34.4370 30.3040 121° Southeast 528 608 39,000  Level FlightAware
07:01AM 34.3960 30.3890 120° Southeast 528 608 39,000  Level FlightAware
07:02AM 34.3500 30.4840 120° Southeast 527 606 39,000  Level FlightAware
07:03AM 34.3030 30.5840 120° Southeast 527 606 39,000  Level FlightAware
07:03AM 34.2660 30.6610 120° Southeast 527 606 39,000  Level FlightAware
07:04AM 34.2210 30.7530 121° Southeast 526 605 39,000  Level FlightAware
07:04AM 34.1830 30.8330 120° Southeast 526 605 39,000  Level FlightAware
07:05AM 34.1330 30.9320 121° Southeast 526 605 39,000  Level FlightAware
07:06AM 34.0830 31.0370 120° Southeast 526 605 39,000  Level FlightAware
07:06AM 34.0370 31.1310 121° Southeast 527 606 39,000  Level FlightAware
07:07AM 33.9930 31.2200 121° Southeast 532 612 39,000  Level FlightAware
07:07AM 33.9490 31.3070 121° Southeast 533 613 39,000  Level FlightAware
07:08AM 33.9050 31.3960 121° Southeast 533 613 39,000  Level FlightAware
07:09AM 33.8600 31.4880 120° Southeast 534 615 39,000 -420 Level FlightAware
07:09AM 33.8090 31.5920 121° Southeast 534 615 38,500 -1,140 Descending FlightAware
07:10AM 33.7640 31.6790 122° Southeast 536 617 37,600 -1,440 Descending FlightAware
07:10AM 33.7190 31.7710 120° Southeast 540 621 36,800 -1,320 Descending FlightAware
07:11AM 33.7030 31.8050 119° Southeast 541 623 36,500 -1,380 Descending FlightAware
07:12AM 33.6290 31.9520 121° Southeast 542 624 35,200 -1,380 Descending FlightAware
07:12AM 33.5840 32.0410 121° Southeast 545 627 34,500 -1,320 Descending FlightAware
07:13AM 33.5360 32.1350 121° Southeast 546 628 33,700 -1,200 Descending FlightAware
07:13AM 33.4930 32.2210 121° Southeast 547 629 33,100 -1,320 Descending FlightAware
07:14AM 33.4320 32.3410 121° Southeast 553 636 32,000 -1,740 Descending FlightAware
07:15AM 33.3900 32.4230 122° Southeast 548 631 30,900 -1,020 Descending FlightAware
07:15AM 33.3430 32.5160 121° Southeast 542 624 30,900 -600 Level FlightAware
07:16AM 33.2960 32.6070 122° Southeast 551 634 30,200 -1,080 Descending FlightAware
07:16AM 33.2540 32.6930 120° Southeast 546 628 29,700 -1,260 Descending FlightAware
07:17AM 33.1910 32.8130 122° Southeast 545 627 28,600 -1,500 Descending FlightAware
07:18AM 33.2140 32.7670 301° West 548 631 27,500 -1,620 Descending FlightAware
07:18AM 33.0930 33.0040 121° Southeast 550 633 26,600 -1,440 Descending FlightAware
07:19AM 33.0370 33.1100 122° Southeast 549 632 25,700 -660 Descending FlightAware
07:20AM 32.9940 33.1930 122° Southeast 549 632 25,700 -720 Level FlightAware
07:20AM 32.9440 33.2910 121° Southeast 537 618 24,900 -1,740 Descending FlightAware
07:21AM 32.8990 33.3760 122° Southeast 529 609 23,900 -1,620 Descending FlightAware
07:21AM 32.8470 33.4760 122° Southeast 520 598 23,000 -1,980 Descending FlightAware
07:22AM 32.8090 33.5470 122° Southeast 496 571 21,600 -2,340 Descending FlightAware
07:23AM 32.7660 33.6280 122° Southeast 449 517 20,400 -2,040 Descending FlightAware
07:23AM 32.7270 33.7030 122° Southeast 422 486 19,100 -2,040 Descending FlightAware
07:24AM 32.6920 33.7700 122° Southeast 403 464 18,000 -1,860 Descending FlightAware
07:24AM 32.6530 33.8450 122° Southeast 377 434 16,800 -1,680 Descending FlightAware
07:25AM 32.6210 33.9040 123° Southeast 361 415 15,900 -1,560 Descending FlightAware
07:26AM 32.5910 33.9620 122° Southeast 351 404 15,000 -1,620 Descending FlightAware
07:26AM 32.5610 34.0170 123° Southeast 342 394 14,100 -1,440 Descending FlightAware
07:26AM 32.5460 34.0400 128° Southeast 340 391 13,800 -1,320 Descending FlightAware
07:27AM 32.5290 34.0510 151° Southeast 331 381 13,500 -1,260 Descending FlightAware
07:27AM 32.4760 34.0720 162° South 319 367 12,800 -1,200 Descending FlightAware
07:28AM 32.4260 34.0920 161° South 308 354 12,100 -1,500 Descending FlightAware
07:28AM 32.3850 34.1090 161° South 309 356 11,200 -1,680 Descending FlightAware
07:29AM 32.3660 34.1250 145° Southeast 309 356 10,800 -1,440 Descending FlightAware
07:29AM 32.3550 34.1420 127° Southeast 306 352 10,500 -780 Descending FlightAware
07:29AM 32.3330 34.1980 115° Southeast 294 338 10,200 -540 Descending FlightAware
07:30AM 32.3130 34.2490 115° Southeast 294 338 9,900 -660 Descending FlightAware
07:30AM 32.2970 34.2900 115° Southeast 287 330 9,500 -1,140 Descending FlightAware
07:31AM 32.2860 34.3170 116° Southeast 283 326 9,000 -720 Descending FlightAware
07:31AM 32.2710 34.3580 113° Southeast 281 323 8,900 -120 Descending FlightAware
07:32AM 32.2600 34.3870 114° Southeast 281 323 8,900  Level FlightAware
07:32AM 32.2500 34.4150 113° Southeast 281 323 8,900  Level FlightAware
07:33AM 32.2390 34.4440 114° Southeast 281 323 8,900 -960 Level FlightAware
07:35AM 32.0783 34.7125 115° Southeast  Level FlightAware Approximate
07:36AM 32.0052 34.8581 125° Southeast  Level FlightAware Approximate
07:36AM 32.1040 34.6970 125° Southeast 4,900  Level FlightAware
07:36AM 32.0840 34.7340 123° Southeast 231 266 4,900  Level FlightAware
07:37AM 32.0720 34.7560 123° Southeast 225 259 4,900  Level FlightAware
07:37AM 32.0610 34.7740 126° Southeast 230 265 4,900 -240 Level FlightAware
07:37AM 32.0510 34.7850 137° Southeast 231 266 4,800 -840 Descending FlightAware
07:38AM 32.0390 34.7990 135° Southeast 228 262 4,500 -540 Descending FlightAware
07:38AM 32.0140 34.8270 136° Southeast 235 270 4,400 -120 Descending FlightAware
07:38AM 31.9970 34.8470 135° Southeast 235 270 4,400 -120 Level FlightAware
07:39AM 31.9980 34.8460 320° Northwest 217 250 4,300 -1,320 Descending FlightAware
07:39AM 31.9730 34.8890 124° Southeast 185 213 3,400 -2,340 Descending FlightAware
07:40AM 31.9770 34.9140 79° East 175 201 2,800 -780 Descending FlightAware
07:40AM 31.9810 34.9330 76° East 175 201 2,800  Level FlightAware
07:43AM 32.0000 34.8667 125° Southeast  Level FlightAware Approximate